Time,TemperatureF,DewpointF,PressureIn,WindDirection,WindDirectionDegrees,WindSpeedMPH,WindSpeedGustMPH,Humidity,HourlyPrecipIn,Conditions,Clouds,dailyrainin,SoftwareType,DateUTC
2013-04-27 00:00:00,41.6,31.1,30.35,SSW,204,0.0,0.0,66,0.00,CLR,SKC,0.00,WeatherDisplay:10.37,2013-04-27 04:00:00,
2013-04-27 00:01:00,41.6,31.1,30.35,SSW,204,0.0,0.0,66,0.00,CLR,SKC,0.00,WeatherDisplay:10.37,2013-04-27 04:01:00,
2013-04-27 00:06:00,41.5,31.0,30.34,SSW,204,0.0,0.0,66,0.00,CLR,SKC,0.00,WeatherDisplay:10.37,2013-04-27 04:06:00,
2013-04-27 00:11:00,41.4,31.6,30.35,SSW,204,0.0,0.0,68,0.00,CLR,SKC,0.00,WeatherDisplay:10.37,2013-04-27 04:11:00,
2013-04-27 00:16:00,41.3,31.5,30.35,SSW,204,0.0,0.0,68,0.00,CLR,SKC,0.00,WeatherDisplay:10.37,2013-04-27 04:16:00,
2013-04-27 00:21:00,41.3,31.9,30.34,SSW,204,0.0,0.0,69,0.00,CLR,SKC,0.00,WeatherDisplay:10.37,2013-04-27 04:21:00,
2013-04-27 00:26:00,41.1,31.7,30.34,SSW,204,0.0,0.0,69,0.00,CLR,SKC,0.00,WeatherDisplay:10.37,2013-04-27 04:26:00,
2013-04-27 00:31:00,41.0,32.0,30.34,SSW,204,0.0,0.0,70,0.00,CLR,SKC,0.00,WeatherDisplay:10.37,2013-04-27 04:31:00,
2013-04-27 00:36:00,40.8,31.4,30.34,SSW,204,0.0,0.0,69,0.00,CLR,SKC,0.00,WeatherDisplay:10.37,2013-04-27 04:36:00,
2013-04-27 00:41:00,40.6,31.6,30.34,SSW,204,0.0,0.0,70,0.00,CLR,SKC,0.00,WeatherDisplay:10.37,2013-04-27 04:41:00,
2013-04-27 00:46:00,40.3,31.6,30.34,SSW,204,0.0,0.0,71,0.00,CLR,SKC,0.00,WeatherDisplay:10.37,2013-04-27 04:46:00,
2013-04-27 00:51:00,40.1,31.4,30.34,SSW,204,0.0,0.0,71,0.00,CLR,SKC,0.00,WeatherDisplay:10.37,2013-04-27 04:51:00,
2013-04-27 00:56:00,39.8,31.5,30.34,SSW,204,0.0,0.0,72,0.00,CLR,SKC,0.00,WeatherDisplay:10.37,2013-04-27 04:56:00,
2013-04-27 01:01:00,39.7,31.4,30.34,SSW,204,0.0,0.0,72,0.00,CLR,SKC,0.00,WeatherDisplay:10.37,2013-04-27 05:01:00,
2013-04-27 01:06:00,39.5,31.6,30.34,SSW,204,0.0,0.0,73,0.00,CLR,SKC,0.00,WeatherDisplay:10.37,2013-04-27 05:06:00,
2013-04-27 01:11:00,39.5,31.9,30.35,SSW,204,0.0,0.0,74,0.00,CLR,SKC,0.00,WeatherDisplay:10.37,2013-04-27 05:11:00,
2013-04-27 01:16:00,39.4,32.5,30.35,SSW,204,0.0,0.0,76,0.00,CLR,SKC,0.00,WeatherDisplay:10.37,2013-04-27 05:16:00,
2013-04-27 01:21:00,39.3,32.4,30.34,SSW,204,0.0,0.0,76,0.00,CLR,SKC,0.00,WeatherDisplay:10.37,2013-04-27 05:21:00,
2013-04-27 01:26:00,39.2,32.3,30.34,SSW,204,0.0,0.0,76,0.00,CLR,SKC,0.00,WeatherDisplay:10.37,2013-04-27 05:26:00,
2013-04-27 01:31:00,39.1,32.2,30.34,SSW,204,0.0,0.0,76,0.00,CLR,SKC,0.00,WeatherDisplay:10.37,2013-04-27 05:31:00,
2013-04-27 01:36:00,39.0,31.7,30.34,SSW,204,0.0,0.0,75,0.00,CLR,SKC,0.00,WeatherDisplay:10.37,2013-04-27 05:36:00,
2013-04-27 01:41:00,38.9,32.0,30.34,SSW,204,0.0,0.0,76,0.00,CLR,SKC,0.00,WeatherDisplay:10.37,2013-04-27 05:41:00,
2013-04-27 01:46:00,38.8,31.9,30.35,SSW,204,0.0,0.0,76,0.00,CLR,SKC,0.00,WeatherDisplay:10.37,2013-04-27 05:46:00,
2013-04-27 01:51:00,38.6,32.0,30.35,SSW,204,0.0,0.0,77,0.00,CLR,SKC,0.00,WeatherDisplay:10.37,2013-04-27 05:51:00,
2013-04-27 01:56:00,38.5,32.2,30.34,SSW,204,0.0,0.0,78,0.00,CLR,SKC,0.00,WeatherDisplay:10.37,2013-04-27 05:56:00,
2013-04-27 02:01:00,38.4,32.5,30.34,SSW,204,0.0,0.0,79,0.00,CLR,SKC,0.00,WeatherDisplay:10.37,2013-04-27 06:01:00,
2013-04-27 02:06:00,38.2,32.3,30.35,SSW,204,0.0,0.0,79,0.00,CLR,SKC,0.00,WeatherDisplay:10.37,2013-04-27 06:06:00,
2013-04-27 02:11:00,38.1,32.5,30.35,SSW,204,0.0,0.0,80,0.00,CLR,SKC,0.00,WeatherDisplay:10.37,2013-04-27 06:11:00,
2013-04-27 02:16:00,37.9,32.3,30.35,SSW,204,0.0,0.0,80,0.00,CLR,SKC,0.00,WeatherDisplay:10.37,2013-04-27 06:16:00,
2013-04-27 02:21:00,37.7,31.8,30.35,SSW,204,0.0,0.0,79,0.00,CLR,SKC,0.00,WeatherDisplay:10.37,2013-04-27 06:21:00,
2013-04-27 02:26:00,37.6,32.0,30.35,SSW,204,0.0,0.0,80,0.00,CLR,SKC,0.00,WeatherDisplay:10.37,2013-04-27 06:26:00,
2013-04-27 02:31:00,37.5,31.9,30.35,SSW,204,0.0,0.0,80,0.00,CLR,SKC,0.00,WeatherDisplay:10.37,2013-04-27 06:31:00,
2013-04-27 02:36:00,37.4,31.8,30.34,SSW,204,0.0,0.0,80,0.00,CLR,SKC,0.00,WeatherDisplay:10.37,2013-04-27 06:36:00,
2013-04-27 02:41:00,37.3,31.7,30.34,SSW,204,0.0,0.0,80,0.00,CLR,SKC,0.00,WeatherDisplay:10.37,2013-04-27 06:41:00,
2013-04-27 02:46:00,37.3,31.7,30.34,SSW,204,0.0,0.0,80,0.00,CLR,SKC,0.00,WeatherDisplay:10.37,2013-04-27 06:46:00,
2013-04-27 02:51:00,37.1,31.2,30.34,SSW,204,0.0,0.0,79,0.00,CLR,SKC,0.00,WeatherDisplay:10.37,2013-04-27 06:51:00,
2013-04-27 02:56:00,37.1,31.5,30.34,SSW,204,0.0,0.0,80,0.00,CLR,SKC,0.00,WeatherDisplay:10.37,2013-04-27 06:56:00,
2013-04-27 03:01:00,36.9,31.6,30.34,SSW,204,0.0,0.0,81,0.00,CLR,SKC,0.00,WeatherDisplay:10.37,2013-04-27 07:01:00,
2013-04-27 03:06:00,36.7,31.4,30.34,SSW,204,0.0,0.0,81,0.00,CLR,SKC,0.00,WeatherDisplay:10.37,2013-04-27 07:06:00,
2013-04-27 03:11:00,36.6,31.6,30.34,SSW,204,0.0,0.0,82,0.00,CLR,SKC,0.00,WeatherDisplay:10.37,2013-04-27 07:11:00,
2013-04-27 03:16:00,36.5,31.5,30.35,SSW,204,0.0,0.0,82,0.00,CLR,SKC,0.00,WeatherDisplay:10.37,2013-04-27 07:16:00,
2013-04-27 03:21:00,36.4,31.7,30.35,SSW,204,0.0,0.0,83,0.00,CLR,SKC,0.00,WeatherDisplay:10.37,2013-04-27 07:21:00,
2013-04-27 03:26:00,36.4,31.7,30.35,SSW,204,0.0,0.0,83,0.00,CLR,SKC,0.00,WeatherDisplay:10.37,2013-04-27 07:26:00,
2013-04-27 03:31:00,36.4,31.7,30.35,SSW,204,0.0,0.0,83,0.00,CLR,SKC,0.00,WeatherDisplay:10.37,2013-04-27 07:31:00,
2013-04-27 03:36:00,36.3,31.3,30.34,SSW,204,0.0,0.0,82,0.00,CLR,SKC,0.00,WeatherDisplay:10.37,2013-04-27 07:36:00,
2013-04-27 03:41:00,36.2,31.5,30.34,SSW,204,0.0,0.0,83,0.00,CLR,SKC,0.00,WeatherDisplay:10.37,2013-04-27 07:41:00,
2013-04-27 03:46:00,36.1,31.4,30.34,SSW,204,0.0,0.0,83,0.00,CLR,SKC,0.00,WeatherDisplay:10.37,2013-04-27 07:46:00,
2013-04-27 03:51:00,36.0,31.3,30.34,SSW,204,0.0,0.0,83,0.00,CLR,SKC,0.00,WeatherDisplay:10.37,2013-04-27 07:51:00,
2013-04-27 03:56:00,36.0,31.6,30.34,SSW,204,0.0,0.0,84,0.00,CLR,SKC,0.00,WeatherDisplay:10.37,2013-04-27 07:56:00,
2013-04-27 04:01:00,35.9,31.5,30.34,SSW,204,0.0,0.0,84,0.00,CLR,SKC,0.00,WeatherDisplay:10.37,2013-04-27 08:01:00,
2013-04-27 04:06:00,35.8,31.4,30.34,SSW,204,0.0,0.0,84,0.00,CLR,SKC,0.00,WeatherDisplay:10.37,2013-04-27 08:06:00,
2013-04-27 04:11:00,35.7,31.3,30.34,SSW,204,0.0,0.0,84,0.00,CLR,SKC,0.00,WeatherDisplay:10.37,2013-04-27 08:11:00,
2013-04-27 04:16:00,35.7,31.6,30.34,SSW,204,0.0,0.0,85,0.00,CLR,SKC,0.00,WeatherDisplay:10.37,2013-04-27 08:16:00,
2013-04-27 04:21:00,35.7,31.6,30.34,SSW,204,0.0,0.0,85,0.00,CLR,SKC,0.00,WeatherDisplay:10.37,2013-04-27 08:21:00,
2013-04-27 04:26:00,35.7,31.6,30.34,SSW,204,0.0,0.0,85,0.00,CLR,SKC,0.00,WeatherDisplay:10.37,2013-04-27 08:26:00,
2013-04-27 04:31:00,35.7,31.3,30.34,SSW,204,0.0,0.0,84,0.00,CLR,SKC,0.00,WeatherDisplay:10.37,2013-04-27 08:31:00,
2013-04-27 04:36:00,35.5,31.4,30.34,SSW,204,0.0,0.0,85,0.00,CLR,SKC,0.00,WeatherDisplay:10.37,2013-04-27 08:36:00,
2013-04-27 04:41:00,35.5,31.4,30.34,SSW,204,0.0,0.0,85,0.00,CLR,SKC,0.00,WeatherDisplay:10.37,2013-04-27 08:41:00,
2013-04-27 04:46:00,35.3,31.5,30.34,SSW,204,0.0,0.0,86,0.00,CLR,SKC,0.00,WeatherDisplay:10.37,2013-04-27 08:46:00,
2013-04-27 04:51:00,35.3,31.5,30.34,SSW,204,0.0,0.0,86,0.00,CLR,SKC,0.00,WeatherDisplay:10.37,2013-04-27 08:51:00,
2013-04-27 04:56:00,35.2,33.1,30.34,SSW,204,0.0,0.0,92,0.00,CLR,SKC,0.00,WeatherDisplay:10.37,2013-04-27 08:56:00,
2013-04-27 05:01:00,35.2,31.7,30.34,SSW,204,0.0,0.0,87,0.00,CLR,SKC,0.00,WeatherDisplay:10.37,2013-04-27 09:01:00,
2013-04-27 05:06:00,35.1,31.6,30.34,SSW,204,0.0,0.0,87,0.00,CLR,SKC,0.00,WeatherDisplay:10.37,2013-04-27 09:06:00,
2013-04-27 05:11:00,35.1,31.6,30.34,SSW,204,0.0,0.0,87,0.00,CLR,SKC,0.00,WeatherDisplay:10.37,2013-04-27 09:11:00,
2013-04-27 05:16:00,35.1,31.6,30.34,SSW,204,0.0,0.0,87,0.00,CLR,SKC,0.00,WeatherDisplay:10.37,2013-04-27 09:16:00,
2013-04-27 05:21:00,34.9,31.4,30.34,SSW,204,0.0,0.0,87,0.00,CLR,SKC,0.00,WeatherDisplay:10.37,2013-04-27 09:21:00,
2013-04-27 05:26:00,34.8,31.3,30.34,SSW,204,0.0,0.0,87,0.00,CLR,SKC,0.00,WeatherDisplay:10.37,2013-04-27 09:26:00,
2013-04-27 05:31:00,34.7,31.2,30.34,SSW,204,0.0,0.0,87,0.00,CLR,SKC,0.00,WeatherDisplay:10.37,2013-04-27 09:31:00,
2013-04-27 05:36:00,34.5,31.3,30.34,SSW,204,0.0,0.0,88,0.00,CLR,SKC,0.00,WeatherDisplay:10.37,2013-04-27 09:36:00,
2013-04-27 05:41:00,34.3,31.1,30.35,SSW,204,0.0,0.0,88,0.00,CLR,SKC,0.00,WeatherDisplay:10.37,2013-04-27 09:41:00,
2013-04-27 05:46:00,34.2,31.0,30.35,SSW,204,0.0,0.0,88,0.00,CLR,SKC,0.00,WeatherDisplay:10.37,2013-04-27 09:46:00,
2013-04-27 05:51:00,34.2,31.3,30.35,SSW,204,0.0,0.0,89,0.00,CLR,SKC,0.00,WeatherDisplay:10.37,2013-04-27 09:51:00,
2013-04-27 05:56:00,34.1,31.2,30.35,SSW,204,0.0,0.0,89,0.00,CLR,SKC,0.00,WeatherDisplay:10.37,2013-04-27 09:56:00,
2013-04-27 06:01:00,33.9,31.0,30.35,SSW,204,0.0,0.0,89,0.00,CLR,SKC,0.00,WeatherDisplay:10.37,2013-04-27 10:01:00,
2013-04-27 06:06:00,33.8,30.9,30.36,SSW,204,0.0,0.0,89,0.00,CLR,SKC,0.00,WeatherDisplay:10.37,2013-04-27 10:06:00,
2013-04-27 06:11:00,33.7,31.1,30.35,SSW,204,0.0,0.0,90,0.00,CLR,SKC,0.00,WeatherDisplay:10.37,2013-04-27 10:11:00,
2013-04-27 06:16:00,33.6,31.0,30.35,SSW,204,0.0,0.0,90,0.00,CLR,SKC,0.00,WeatherDisplay:10.37,2013-04-27 10:16:00,
2013-04-27 06:21:00,33.5,30.9,30.36,SSW,204,0.0,0.0,90,0.00,CLR,SKC,0.00,WeatherDisplay:10.37,2013-04-27 10:21:00,
2013-04-27 06:26:00,33.5,31.2,30.36,SSW,204,0.0,0.0,91,0.00,CLR,SKC,0.00,WeatherDisplay:10.37,2013-04-27 10:26:00,
2013-04-27 06:31:00,33.5,31.2,30.36,SSW,204,0.0,0.0,91,0.00,CLR,SKC,0.00,WeatherDisplay:10.37,2013-04-27 10:31:00,
2013-04-27 06:36:00,33.5,31.2,30.36,SSW,204,0.0,0.0,91,0.00,CLR,SKC,0.00,WeatherDisplay:10.37,2013-04-27 10:36:00,
2013-04-27 06:41:00,33.4,31.1,30.36,SSW,204,0.0,0.0,91,0.00,CLR,SKC,0.00,WeatherDisplay:10.37,2013-04-27 10:41:00,
2013-04-27 06:46:00,33.4,31.1,30.36,SSW,204,0.0,0.0,91,0.00,CLR,SKC,0.00,WeatherDisplay:10.37,2013-04-27 10:46:00,
2013-04-27 06:51:00,33.4,31.1,30.36,SSW,204,0.0,0.0,91,0.00,CLR,SKC,0.00,WeatherDisplay:10.37,2013-04-27 10:51:00,
2013-04-27 06:56:00,33.6,31.5,30.36,SSW,204,0.0,0.0,92,0.00,CLR,SKC,0.00,WeatherDisplay:10.37,2013-04-27 10:56:00,
2013-04-27 07:01:00,33.8,32.0,30.36,SSW,204,0.0,0.0,93,0.00,CLR,SKC,0.00,WeatherDisplay:10.37,2013-04-27 11:01:00,
2013-04-27 07:06:00,34.1,32.3,30.36,SSW,204,0.0,0.0,93,0.00,CLR,SKC,0.00,WeatherDisplay:10.37,2013-04-27 11:06:00,
2013-04-27 07:11:00,34.3,32.5,30.37,SSW,204,0.0,0.0,93,0.00,CLR,SKC,0.00,WeatherDisplay:10.37,2013-04-27 11:11:00,
2013-04-27 07:16:00,34.5,32.7,30.37,SSW,204,0.0,0.0,93,0.00,CLR,SKC,0.00,WeatherDisplay:10.37,2013-04-27 11:16:00,
2013-04-27 07:21:00,34.7,32.9,30.37,SSW,204,0.0,0.0,93,0.00,CLR,SKC,0.00,WeatherDisplay:10.37,2013-04-27 11:21:00,
2013-04-27 07:26:00,35.1,33.3,30.37,SSW,204,0.0,0.0,93,0.00,CLR,SKC,0.00,WeatherDisplay:10.37,2013-04-27 11:26:00,
2013-04-27 07:31:00,35.6,34.0,30.37,SSW,204,0.0,0.0,94,0.00,CLR,SKC,0.00,WeatherDisplay:10.37,2013-04-27 11:31:00,
2013-04-27 07:36:00,36.1,34.5,30.37,SSW,204,0.0,0.0,94,0.00,CLR,SKC,0.00,WeatherDisplay:10.37,2013-04-27 11:36:00,
2013-04-27 07:41:00,36.7,34.9,30.37,SSW,204,0.0,0.0,93,0.00,CLR,SKC,0.00,WeatherDisplay:10.37,2013-04-27 11:41:00,
2013-04-27 07:46:00,37.3,35.2,30.37,SSW,204,0.0,0.0,92,0.00,CLR,SKC,0.00,WeatherDisplay:10.37,2013-04-27 11:46:00,
2013-04-27 07:51:00,37.9,35.2,30.37,SSW,204,0.0,0.0,90,0.00,CLR,SKC,0.00,WeatherDisplay:10.37,2013-04-27 11:51:00,
2013-04-27 07:56:00,38.6,35.6,30.37,SSW,204,0.0,0.0,89,0.00,CLR,SKC,0.00,WeatherDisplay:10.37,2013-04-27 11:56:00,
2013-04-27 08:01:00,39.4,36.4,30.37,SSW,204,0.0,0.0,89,0.00,CLR,SKC,0.00,WeatherDisplay:10.37,2013-04-27 12:01:00,
2013-04-27 08:06:00,40.4,36.2,30.38,SSW,204,1.1,1.1,85,0.00,CLR,SKC,0.00,WeatherDisplay:10.37,2013-04-27 12:06:00,
2013-04-27 08:11:00,41.5,36.4,30.38,SSW,204,0.0,0.0,82,0.00,CLR,SKC,0.00,WeatherDisplay:10.37,2013-04-27 12:11:00,
2013-04-27 08:16:00,42.7,37.3,30.38,SSW,204,0.0,0.0,81,0.00,CLR,SKC,0.00,WeatherDisplay:10.37,2013-04-27 12:16:00,
2013-04-27 08:21:00,43.7,37.3,30.38,NW,313,0.0,0.0,78,0.00,CLR,SKC,0.00,WeatherDisplay:10.37,2013-04-27 12:21:00,
2013-04-27 08:26:00,44.6,37.2,30.37,NNE,21,0.0,0.0,75,0.00,CLR,SKC,0.00,WeatherDisplay:10.37,2013-04-27 12:26:00,
2013-04-27 08:31:00,45.5,38.0,30.37,NNE,21,2.3,2.3,75,0.00,CLR,SKC,0.00,WeatherDisplay:10.37,2013-04-27 12:31:00,
2013-04-27 08:36:00,46.3,38.1,30.37,NNE,21,1.1,1.1,73,0.00,CLR,SKC,0.00,WeatherDisplay:10.37,2013-04-27 12:36:00,
2013-04-27 08:41:00,47.1,38.9,30.37,NNE,21,1.1,0.0,73,0.00,CLR,SKC,0.00,WeatherDisplay:10.37,2013-04-27 12:41:00,
2013-04-27 08:46:00,47.9,38.6,30.37,NNE,21,0.0,0.1,70,0.00,CLR,SKC,0.00,WeatherDisplay:10.37,2013-04-27 12:46:00,
2013-04-27 08:51:00,48.7,39.4,30.37,NNE,21,1.1,0.0,70,0.00,CLR,SKC,0.00,WeatherDisplay:10.37,2013-04-27 12:51:00,
2013-04-27 08:56:00,49.5,39.7,30.37,NNE,21,1.1,1.1,69,0.00,CLR,SKC,0.00,WeatherDisplay:10.37,2013-04-27 12:56:00,
2013-04-27 09:01:00,50.1,39.2,30.37,NNE,21,2.3,0.0,66,0.00,CLR,SKC,0.00,WeatherDisplay:10.37,2013-04-27 13:01:00,
2013-04-27 09:06:00,50.6,39.3,30.37,NNE,22,3.4,3.4,65,0.00,CLR,SKC,0.00,WeatherDisplay:10.37,2013-04-27 13:06:00,
2013-04-27 09:11:00,50.9,39.1,30.37,NNE,21,1.1,0.0,64,0.00,CLR,SKC,0.00,WeatherDisplay:10.37,2013-04-27 13:11:00,
2013-04-27 09:16:00,51.4,40.0,30.37,NNE,21,1.1,1.1,65,0.00,CLR,SKC,0.00,WeatherDisplay:10.37,2013-04-27 13:16:00,
2013-04-27 09:21:00,52.0,40.2,30.37,NNE,21,3.4,0.0,64,0.00,CLR,SKC,0.00,WeatherDisplay:10.37,2013-04-27 13:21:00,
2013-04-27 09:26:00,52.3,40.5,30.37,NNE,21,0.0,0.0,64,0.00,CLR,SKC,0.00,WeatherDisplay:10.37,2013-04-27 13:26:00,
2013-04-27 09:31:00,53.0,40.3,30.37,NNE,21,1.1,1.1,62,0.00,CLR,SKC,0.00,WeatherDisplay:10.37,2013-04-27 13:31:00,
2013-04-27 09:36:00,53.5,39.1,30.37,NNE,21,0.0,0.0,58,0.00,CLR,SKC,0.00,WeatherDisplay:10.37,2013-04-27 13:36:00,
2013-04-27 09:41:00,54.0,39.1,30.37,NNE,21,1.1,0.0,57,0.00,CLR,SKC,0.00,WeatherDisplay:10.37,2013-04-27 13:41:00,
2013-04-27 09:48:00,54.8,38.0,30.36,NNE,21,0.0,0.0,53,0.00,CLR,SKC,0.00,WeatherDisplay:10.37,2013-04-27 13:48:00,
2013-04-27 09:53:00,55.5,40.0,30.36,NNE,21,0.0,0.0,56,0.00,CLR,SKC,0.00,WeatherDisplay:10.37,2013-04-27 13:53:00,
2013-04-27 09:58:00,55.9,38.0,30.36,NNE,21,0.0,0.1,51,0.00,CLR,SKC,0.00,WeatherDisplay:10.37,2013-04-27 13:58:00,
2013-04-27 10:03:00,56.3,37.9,30.36,NNE,24,2.3,0.0,50,0.00,CLR,SKC,0.00,WeatherDisplay:10.37,2013-04-27 14:03:00,
2013-04-27 10:08:00,56.9,37.4,30.36,NNE,24,0.0,0.0,48,0.00,CLR,SKC,0.00,WeatherDisplay:10.37,2013-04-27 14:08:00,
2013-04-27 10:13:00,57.4,37.9,30.36,NNE,32,2.3,2.3,48,0.00,CLR,SKC,0.00,WeatherDisplay:10.37,2013-04-27 14:13:00,
2013-04-27 10:18:00,57.6,37.0,30.36,NNE,32,1.1,0.0,46,0.00,CLR,SKC,0.00,WeatherDisplay:10.37,2013-04-27 14:18:00,
2013-04-27 10:23:00,57.3,37.2,30.36,SSE,163,1.1,1.1,47,0.00,CLR,SKC,0.00,WeatherDisplay:10.37,2013-04-27 14:23:00,
2013-04-27 10:28:00,57.4,37.9,30.35,SSE,163,0.0,0.0,48,0.00,CLR,SKC,0.00,WeatherDisplay:10.37,2013-04-27 14:28:00,
2013-04-27 10:33:00,58.1,38.0,30.35,South,180,3.4,3.4,47,0.00,CLR,SKC,0.00,WeatherDisplay:10.37,2013-04-27 14:33:00,
2013-04-27 10:38:00,58.4,37.1,30.35,South,180,0.0,0.0,45,0.00,CLR,SKC,0.00,WeatherDisplay:10.37,2013-04-27 14:38:00,
2013-04-27 10:43:00,59.0,38.2,30.35,South,174,1.1,1.1,46,0.00,CLR,SKC,0.00,WeatherDisplay:10.37,2013-04-27 14:43:00,
2013-04-27 10:48:00,59.6,38.8,30.35,SSE,159,2.3,2.3,46,0.00,CLR,SKC,0.00,WeatherDisplay:10.37,2013-04-27 14:48:00,
2013-04-27 10:53:00,60.0,38.6,30.35,SE,145,3.4,3.4,45,0.00,CLR,SKC,0.00,WeatherDisplay:10.37,2013-04-27 14:53:00,
2013-04-27 10:58:00,60.0,38.6,30.35,South,171,0.0,0.0,45,0.00,CLR,SKC,0.00,WeatherDisplay:10.37,2013-04-27 14:58:00,
2013-04-27 11:03:00,60.4,40.6,30.35,NE,34,0.0,0.0,48,0.00,CLR,SKC,0.00,WeatherDisplay:10.37,2013-04-27 15:03:00,
2013-04-27 11:08:00,61.2,40.2,30.34,SSE,148,1.1,1.1,46,0.00,CLR,SKC,0.00,WeatherDisplay:10.37,2013-04-27 15:08:00,
2013-04-27 11:13:00,61.4,38.7,30.35,SSE,165,4.6,4.6,43,0.00,CLR,SKC,0.00,WeatherDisplay:10.37,2013-04-27 15:13:00,
2013-04-27 11:18:00,61.6,40.0,30.34,South,178,3.4,3.4,45,0.00,CLR,SKC,0.00,WeatherDisplay:10.37,2013-04-27 15:18:00,
2013-04-27 11:23:00,61.8,36.6,30.34,East,84,4.6,4.6,39,0.00,CLR,SKC,0.00,WeatherDisplay:10.37,2013-04-27 15:23:00,
2013-04-27 11:28:00,61.8,37.2,30.34,NE,35,4.6,4.6,40,0.00,CLR,SKC,0.00,WeatherDisplay:10.37,2013-04-27 15:28:00,
2013-04-27 11:33:00,62.0,38.6,30.34,NE,35,1.1,0.0,42,0.00,CLR,SKC,0.00,WeatherDisplay:10.37,2013-04-27 15:33:00,
2013-04-27 11:38:00,62.3,38.9,30.34,SSW,194,3.4,3.4,42,0.00,CLR,SKC,0.00,WeatherDisplay:10.37,2013-04-27 15:38:00,
2013-04-27 11:43:00,62.6,37.3,30.33,NE,56,2.3,2.3,39,0.00,CLR,SKC,0.00,WeatherDisplay:10.37,2013-04-27 15:43:00,
2013-04-27 11:48:00,63.0,37.6,30.33,SSE,153,4.6,4.6,39,0.00,CLR,SKC,0.00,WeatherDisplay:10.37,2013-04-27 15:48:00,
2013-04-27 11:53:00,63.2,40.3,30.33,South,178,1.1,1.1,43,0.00,CLR,SKC,0.00,WeatherDisplay:10.37,2013-04-27 15:53:00,
2013-04-27 11:58:00,63.6,39.5,30.33,South,187,1.1,1.1,41,0.00,CLR,SKC,0.00,WeatherDisplay:10.37,2013-04-27 15:58:00,
2013-04-27 12:03:00,64.1,39.3,30.33,NNE,27,3.4,3.4,40,0.00,CLR,SKC,0.00,WeatherDisplay:10.37,2013-04-27 16:03:00,
2013-04-27 12:08:00,64.4,36.8,30.33,South,186,3.4,3.4,36,0.00,CLR,SKC,0.00,WeatherDisplay:10.37,2013-04-27 16:08:00,
2013-04-27 12:13:00,64.2,35.2,30.32,North,9,0.0,0.0,34,0.00,CLR,SKC,0.00,WeatherDisplay:10.37,2013-04-27 16:13:00,
2013-04-27 12:18:00,64.3,36.8,30.32,NE,45,2.3,0.0,36,0.00,CLR,SKC,0.00,WeatherDisplay:10.37,2013-04-27 16:18:00,
2013-04-27 12:23:00,64.6,38.4,30.32,South,182,1.1,1.1,38,0.00,CLR,SKC,0.00,WeatherDisplay:10.37,2013-04-27 16:23:00,
2013-04-27 12:28:00,65.1,40.2,30.31,NE,49,3.4,3.4,40,0.00,CLR,SKC,0.00,WeatherDisplay:10.37,2013-04-27 16:28:00,
2013-04-27 12:33:00,65.4,37.0,30.31,SSW,192,1.1,0.0,35,0.00,CLR,SKC,0.00,WeatherDisplay:10.37,2013-04-27 16:33:00,
2013-04-27 12:38:00,65.6,35.7,30.31,SSW,198,3.4,3.4,33,0.00,CLR,SKC,0.00,WeatherDisplay:10.37,2013-04-27 16:38:00,
2013-04-27 12:43:00,65.3,36.9,30.31,SW,217,2.3,2.3,35,0.00,CLR,SKC,0.00,WeatherDisplay:10.37,2013-04-27 16:43:00,
2013-04-27 12:48:00,65.3,39.0,30.30,SSW,212,1.1,1.1,38,0.00,CLR,SKC,0.00,WeatherDisplay:10.37,2013-04-27 16:48:00,
2013-04-27 12:53:00,65.1,38.2,30.30,South,172,1.1,0.0,37,0.00,CLR,SKC,0.00,WeatherDisplay:10.37,2013-04-27 16:53:00,
2013-04-27 12:58:00,65.3,34.7,30.30,South,171,3.4,3.4,32,0.00,CLR,SKC,0.00,WeatherDisplay:10.37,2013-04-27 16:58:00,
2013-04-27 13:03:00,65.1,39.5,30.30,SSW,201,3.4,3.4,39,0.00,CLR,SKC,0.00,WeatherDisplay:10.37,2013-04-27 17:03:00,
2013-04-27 13:08:00,65.2,37.6,30.30,South,188,1.1,0.0,36,0.00,CLR,SKC,0.00,WeatherDisplay:10.37,2013-04-27 17:08:00,
2013-04-27 13:13:00,65.6,40.6,30.29,ENE,70,2.0,2.0,40,0.00,CLR,SKC,0.00,WeatherDisplay:10.37,2013-04-27 17:13:00,
2013-04-27 13:18:00,66.0,36.8,30.29,ESE,103,4.0,4.0,34,0.00,CLR,SKC,0.00,WeatherDisplay:10.37,2013-04-27 17:18:00,
2013-04-27 13:23:00,66.0,35.3,30.29,SSW,200,3.4,3.4,32,0.00,CLR,SKC,0.00,WeatherDisplay:10.37,2013-04-27 17:23:00,
2013-04-27 13:28:00,65.7,38.7,30.28,SW,215,1.1,1.1,37,0.00,CLR,SKC,0.00,WeatherDisplay:10.37,2013-04-27 17:28:00,
2013-04-27 13:33:00,65.7,36.5,30.28,SSW,196,3.4,3.4,34,0.00,CLR,SKC,0.00,WeatherDisplay:10.37,2013-04-27 17:33:00,
2013-04-27 13:38:00,65.6,36.5,30.28,SSW,196,1.1,1.1,34,0.00,CLR,SKC,0.00,WeatherDisplay:10.37,2013-04-27 17:38:00,
2013-04-27 13:43:00,65.9,36.7,30.28,South,170,1.1,1.1,34,0.00,CLR,SKC,0.00,WeatherDisplay:10.37,2013-04-27 17:43:00,
2013-04-27 13:48:00,66.5,36.5,30.28,ESE,111,2.3,2.3,33,0.00,CLR,SKC,0.00,WeatherDisplay:10.37,2013-04-27 17:48:00,
2013-04-27 13:53:00,67.1,37.8,30.28,NE,40,2.3,2.3,34,0.00,CLR,SKC,0.00,WeatherDisplay:10.37,2013-04-27 17:53:00,
2013-04-27 13:58:00,67.5,40.3,30.28,SW,219,3.4,0.0,37,0.00,CLR,SKC,0.00,WeatherDisplay:10.37,2013-04-27 17:58:00,
2013-04-27 14:03:00,67.7,36.8,30.27,SSW,200,3.4,3.4,32,0.00,CLR,SKC,0.00,WeatherDisplay:10.37,2013-04-27 18:03:00,
2013-04-27 14:08:00,67.6,39.0,30.27,SE,126,1.1,1.1,35,0.00,CLR,SKC,0.00,WeatherDisplay:10.37,2013-04-27 18:08:00,
2013-04-27 14:13:00,67.8,36.8,30.27,NE,36,3.0,3.0,32,0.00,CLR,SKC,0.00,WeatherDisplay:10.37,2013-04-27 18:13:00,
2013-04-27 14:18:00,68.1,40.1,30.27,SSW,209,2.0,2.0,36,0.00,CLR,SKC,0.00,WeatherDisplay:10.37,2013-04-27 18:18:00,
2013-04-27 14:23:00,68.1,37.1,30.26,SE,134,3.4,3.4,32,0.00,CLR,SKC,0.00,WeatherDisplay:10.37,2013-04-27 18:23:00,
2013-04-27 14:28:00,68.2,36.4,30.26,SSW,193,1.1,1.1,31,0.00,CLR,SKC,0.00,WeatherDisplay:10.37,2013-04-27 18:28:00,
2013-04-27 14:33:00,68.2,39.5,30.26,SSW,194,0.0,0.0,35,0.00,CLR,SKC,0.00,WeatherDisplay:10.37,2013-04-27 18:33:00,
2013-04-27 14:38:00,68.4,34.0,30.26,SSW,196,2.3,2.3,28,0.00,CLR,SKC,0.00,WeatherDisplay:10.37,2013-04-27 18:38:00,
2013-04-27 14:43:00,68.4,34.0,30.25,SSW,202,1.1,1.1,28,0.00,CLR,SKC,0.00,WeatherDisplay:10.37,2013-04-27 18:43:00,
2013-04-27 14:48:00,68.2,33.8,30.25,SSW,202,2.3,2.3,28,0.00,CLR,SKC,0.00,WeatherDisplay:10.37,2013-04-27 18:48:00,
2013-04-27 14:53:00,67.9,36.9,30.25,SSW,196,3.4,3.4,32,0.00,CLR,SKC,0.00,WeatherDisplay:10.37,2013-04-27 18:53:00,
2013-04-27 14:58:00,67.9,33.6,30.25,SSW,196,2.3,2.3,28,0.00,CLR,SKC,0.00,WeatherDisplay:10.37,2013-04-27 18:58:00,
2013-04-27 15:03:00,68.3,34.8,30.25,SSW,206,1.1,1.1,29,0.00,CLR,SKC,0.00,WeatherDisplay:10.37,2013-04-27 19:03:00,
2013-04-27 15:08:00,68.5,35.0,30.25,SW,222,1.1,1.1,29,0.00,CLR,SKC,0.00,WeatherDisplay:10.37,2013-04-27 19:08:00,
2013-04-27 15:13:00,69.0,34.5,30.24,SW,222,1.1,0.0,28,0.00,CLR,SKC,0.00,WeatherDisplay:10.37,2013-04-27 19:13:00,
2013-04-27 15:18:00,69.2,31.9,30.24,SSW,200,3.4,3.4,25,0.00,CLR,SKC,0.00,WeatherDisplay:10.37,2013-04-27 19:18:00,
2013-04-27 15:23:00,69.1,36.3,30.24,SSW,200,1.1,1.1,30,0.00,CLR,SKC,0.00,WeatherDisplay:10.37,2013-04-27 19:23:00,
2013-04-27 15:28:00,69.4,37.4,30.24,South,173,3.4,3.4,31,0.00,CLR,SKC,0.00,WeatherDisplay:10.37,2013-04-27 19:28:00,
2013-04-27 15:33:00,69.6,35.0,30.23,SSE,166,3.4,3.4,28,0.00,CLR,SKC,0.00,WeatherDisplay:10.37,2013-04-27 19:33:00,
2013-04-27 15:38:00,69.9,37.9,30.23,SSE,166,0.0,0.1,31,0.00,CLR,SKC,0.00,WeatherDisplay:10.37,2013-04-27 19:38:00,
2013-04-27 15:43:00,70.1,32.6,30.23,NE,40,3.4,3.4,25,0.00,CLR,SKC,0.00,WeatherDisplay:10.37,2013-04-27 19:43:00,
2013-04-27 15:48:00,69.9,34.4,30.23,SSW,195,3.4,3.4,27,0.00,CLR,SKC,0.00,WeatherDisplay:10.37,2013-04-27 19:48:00,
2013-04-27 15:53:00,69.7,39.3,30.23,SSW,196,2.3,2.3,33,0.00,CLR,SKC,0.00,WeatherDisplay:10.37,2013-04-27 19:53:00,
2013-04-27 15:58:00,69.8,36.9,30.22,SSW,196,1.1,1.1,30,0.00,CLR,SKC,0.00,WeatherDisplay:10.37,2013-04-27 19:58:00,
2013-04-27 16:03:00,69.9,37.0,30.22,SSE,155,3.4,3.4,30,0.00,CLR,SKC,0.00,WeatherDisplay:10.37,2013-04-27 20:03:00,
2013-04-27 16:08:00,70.0,38.8,30.22,SSE,160,0.0,0.0,32,0.00,CLR,SKC,0.00,WeatherDisplay:10.37,2013-04-27 20:08:00,
2013-04-27 16:13:00,70.0,34.5,30.22,SW,217,3.4,0.0,27,0.00,CLR,SKC,0.00,WeatherDisplay:10.37,2013-04-27 20:13:00,
2013-04-27 16:18:00,69.9,38.7,30.22,SSW,209,1.1,0.0,32,0.00,CLR,SKC,0.00,WeatherDisplay:10.37,2013-04-27 20:18:00,
2013-04-27 16:23:00,69.8,35.2,30.22,SSW,213,1.1,1.1,28,0.00,CLR,SKC,0.00,WeatherDisplay:10.37,2013-04-27 20:23:00,
2013-04-27 16:28:00,69.7,35.1,30.22,SSW,202,3.4,3.4,28,0.00,CLR,SKC,0.00,WeatherDisplay:10.37,2013-04-27 20:28:00,
2013-04-27 16:33:00,69.6,37.6,30.22,SW,234,2.0,2.0,31,0.00,CLR,SKC,0.00,WeatherDisplay:10.37,2013-04-27 20:33:00,
2013-04-27 16:38:00,69.8,36.1,30.21,SW,235,1.1,0.0,29,0.00,CLR,SKC,0.00,WeatherDisplay:10.37,2013-04-27 20:38:00,
2013-04-27 16:43:00,69.9,35.3,30.21,ENE,59,1.1,1.1,28,0.00,CLR,SKC,0.00,WeatherDisplay:10.37,2013-04-27 20:43:00,
2013-04-27 16:48:00,69.8,35.2,30.21,SSW,203,3.4,3.4,28,0.00,CLR,SKC,0.00,WeatherDisplay:10.37,2013-04-27 20:48:00,
2013-04-27 16:53:00,69.7,35.1,30.21,NNE,32,3.4,3.4,28,0.00,CLR,SKC,0.00,WeatherDisplay:10.37,2013-04-27 20:53:00,
2013-04-27 16:58:00,70.0,36.3,30.21,SSW,193,3.4,3.4,29,0.00,CLR,SKC,0.00,WeatherDisplay:10.37,2013-04-27 20:58:00,
2013-04-27 17:03:00,70.0,38.8,30.21,SSE,167,1.1,1.1,32,0.00,CLR,SKC,0.00,WeatherDisplay:10.37,2013-04-27 21:03:00,
2013-04-27 17:08:00,69.8,36.1,30.21,South,181,0.0,0.1,29,0.00,CLR,SKC,0.00,WeatherDisplay:10.37,2013-04-27 21:08:00,
2013-04-27 17:13:00,70.0,37.1,30.21,South,181,1.1,0.0,30,0.00,CLR,SKC,0.00,WeatherDisplay:10.37,2013-04-27 21:13:00,
2013-04-27 17:18:00,70.2,35.5,30.21,NE,34,4.6,4.6,28,0.00,CLR,SKC,0.00,WeatherDisplay:10.37,2013-04-27 21:18:00,
2013-04-27 17:23:00,70.2,37.3,30.20,NNW,333,5.0,5.0,30,0.00,CLR,SKC,0.00,WeatherDisplay:10.37,2013-04-27 21:23:00,
2013-04-27 17:28:00,70.4,37.5,30.20,ENE,67,2.3,2.3,30,0.00,CLR,SKC,0.00,WeatherDisplay:10.37,2013-04-27 21:28:00,
2013-04-27 17:33:00,70.5,37.6,30.20,NNE,33,1.1,1.1,30,0.00,CLR,SKC,0.00,WeatherDisplay:10.37,2013-04-27 21:33:00,
2013-04-27 17:38:00,70.6,37.6,30.20,NE,36,1.1,1.1,30,0.00,CLR,SKC,0.00,WeatherDisplay:10.37,2013-04-27 21:38:00,
2013-04-27 17:43:00,70.7,36.0,30.20,NE,39,2.3,2.3,28,0.00,CLR,SKC,0.00,WeatherDisplay:10.37,2013-04-27 21:43:00,
2013-04-27 17:48:00,70.7,36.0,30.20,NE,51,3.4,3.4,28,0.00,CLR,SKC,0.00,WeatherDisplay:10.37,2013-04-27 21:48:00,
2013-04-27 17:53:00,70.7,38.6,30.20,NNE,19,3.4,3.4,31,0.00,CLR,SKC,0.00,WeatherDisplay:10.37,2013-04-27 21:53:00,
2013-04-27 17:58:00,70.8,37.8,30.20,NE,42,1.1,1.1,30,0.00,CLR,SKC,0.00,WeatherDisplay:10.37,2013-04-27 21:58:00,
2013-04-27 18:03:00,70.8,37.8,30.20,NE,42,0.0,0.0,30,0.00,CLR,SKC,0.00,WeatherDisplay:10.37,2013-04-27 22:03:00,
2013-04-27 18:08:00,70.8,37.8,30.20,NE,48,1.0,0.0,30,0.00,CLR,SKC,0.00,WeatherDisplay:10.37,2013-04-27 22:08:00,
2013-04-27 18:13:00,70.7,36.0,30.20,NE,55,1.1,0.0,28,0.00,CLR,SKC,0.00,WeatherDisplay:10.37,2013-04-27 22:13:00,
2013-04-27 18:18:00,70.8,36.1,30.19,ENE,59,1.1,1.1,28,0.00,CLR,SKC,0.00,WeatherDisplay:10.37,2013-04-27 22:18:00,
2013-04-27 18:23:00,70.7,37.7,30.19,ENE,59,0.0,0.0,30,0.00,CLR,SKC,0.00,WeatherDisplay:10.37,2013-04-27 22:23:00,
2013-04-27 18:28:00,70.6,36.8,30.19,ENE,59,0.0,0.0,29,0.00,CLR,SKC,0.00,WeatherDisplay:10.37,2013-04-27 22:28:00,
2013-04-27 18:33:00,70.6,35.0,30.19,NE,39,2.3,0.0,27,0.00,CLR,SKC,0.00,WeatherDisplay:10.37,2013-04-27 22:33:00,
2013-04-27 18:38:00,70.5,35.8,30.19,NE,39,2.3,2.3,28,0.00,CLR,SKC,0.00,WeatherDisplay:10.37,2013-04-27 22:38:00,
2013-04-27 18:43:00,70.3,35.6,30.19,NE,39,3.4,3.4,28,0.00,CLR,SKC,0.00,WeatherDisplay:10.37,2013-04-27 22:43:00,
2013-04-27 18:48:00,69.9,35.3,30.19,NE,39,0.0,0.0,28,0.00,CLR,SKC,0.00,WeatherDisplay:10.37,2013-04-27 22:48:00,
2013-04-27 18:53:00,69.3,35.7,30.19,NE,39,1.1,0.0,29,0.00,CLR,SKC,0.00,WeatherDisplay:10.37,2013-04-27 22:53:00,
2013-04-27 18:58:00,68.7,34.3,30.19,NE,40,1.1,0.0,28,0.00,CLR,SKC,0.00,WeatherDisplay:10.37,2013-04-27 22:58:00,
2013-04-27 19:03:00,68.3,35.6,30.19,South,181,0.0,0.0,30,0.00,CLR,SKC,0.00,WeatherDisplay:10.37,2013-04-27 23:03:00,
2013-04-27 19:08:00,67.8,34.4,30.19,NE,51,3.4,3.4,29,0.00,CLR,SKC,0.00,WeatherDisplay:10.37,2013-04-27 23:08:00,
2013-04-27 19:13:00,67.5,35.0,30.19,NE,51,0.0,0.0,30,0.00,CLR,SKC,0.00,WeatherDisplay:10.37,2013-04-27 23:13:00,
2013-04-27 19:18:00,67.1,35.4,30.19,NE,51,1.1,0.0,31,0.00,CLR,SKC,0.00,WeatherDisplay:10.37,2013-04-27 23:18:00,
2013-04-27 19:23:00,66.7,35.1,30.19,NE,51,0.0,0.0,31,0.00,CLR,SKC,0.00,WeatherDisplay:10.37,2013-04-27 23:23:00,
2013-04-27 19:28:00,66.3,35.5,30.19,NE,51,0.0,0.0,32,0.00,CLR,SKC,0.00,WeatherDisplay:10.37,2013-04-27 23:28:00,
2013-04-27 19:33:00,65.9,38.2,30.19,NE,51,0.0,0.0,36,0.00,CLR,SKC,0.00,WeatherDisplay:10.37,2013-04-27 23:33:00,
2013-04-27 19:38:00,65.5,37.8,30.19,NE,51,0.0,0.0,36,0.00,CLR,SKC,0.00,WeatherDisplay:10.37,2013-04-27 23:38:00,
2013-04-27 19:43:00,64.9,38.7,30.18,NE,51,0.0,0.0,38,0.00,CLR,SKC,0.00,WeatherDisplay:10.37,2013-04-27 23:43:00,
2013-04-27 19:48:00,64.2,38.0,30.18,NE,51,0.0,0.0,38,0.00,CLR,SKC,0.00,WeatherDisplay:10.37,2013-04-27 23:48:00,
2013-04-27 19:53:00,63.4,39.3,30.18,NE,51,0.0,0.0,41,0.00,CLR,SKC,0.00,WeatherDisplay:10.37,2013-04-27 23:53:00,
2013-04-27 19:58:00,62.5,39.7,30.18,NE,51,0.0,0.0,43,0.00,CLR,SKC,0.00,WeatherDisplay:10.37,2013-04-27 23:58:00,
2013-04-27 20:03:00,61.8,40.2,30.18,NE,51,0.0,0.0,45,0.00,CLR,SKC,0.00,WeatherDisplay:10.37,2013-04-28 00:03:00,
2013-04-27 20:08:00,61.0,38.9,30.18,NE,51,0.0,0.0,44,0.00,CLR,SKC,0.00,WeatherDisplay:10.37,2013-04-28 00:08:00,
2013-04-27 20:13:00,60.3,38.9,30.18,NE,51,0.0,0.0,45,0.00,CLR,SKC,0.00,WeatherDisplay:10.37,2013-04-28 00:13:00,
2013-04-27 20:18:00,59.7,38.9,30.18,NE,51,0.0,0.0,46,0.00,CLR,SKC,0.00,WeatherDisplay:10.37,2013-04-28 00:18:00,
2013-04-27 20:23:00,59.1,38.9,30.18,NE,51,0.0,0.0,47,0.00,CLR,SKC,0.00,WeatherDisplay:10.37,2013-04-28 00:23:00,
2013-04-27 20:28:00,58.5,38.3,30.18,NE,51,0.0,0.0,47,0.00,CLR,SKC,0.00,WeatherDisplay:10.37,2013-04-28 00:28:00,
2013-04-27 20:33:00,58.0,38.4,30.18,NE,51,0.0,0.0,48,0.00,CLR,SKC,0.00,WeatherDisplay:10.37,2013-04-28 00:33:00,
2013-04-27 20:38:00,57.6,38.6,30.18,NE,51,0.0,0.0,49,0.00,CLR,SKC,0.00,WeatherDisplay:10.37,2013-04-28 00:38:00,
2013-04-27 20:43:00,57.1,38.6,30.18,NE,51,0.0,0.0,50,0.00,CLR,SKC,0.00,WeatherDisplay:10.37,2013-04-28 00:43:00,
2013-04-27 20:48:00,56.7,39.3,30.18,NE,51,0.0,0.0,52,0.00,CLR,SKC,0.00,WeatherDisplay:10.37,2013-04-28 00:48:00,
2013-04-27 20:53:00,56.4,38.5,30.18,NE,51,0.0,0.0,51,0.00,CLR,SKC,0.00,WeatherDisplay:10.37,2013-04-28 00:53:00,
2013-04-27 20:58:00,56.1,38.7,30.18,NE,51,0.0,0.0,52,0.00,CLR,SKC,0.00,WeatherDisplay:10.37,2013-04-28 00:58:00,
2013-04-27 21:03:00,55.9,38.5,30.19,NE,51,0.0,0.0,52,0.00,CLR,SKC,0.00,WeatherDisplay:10.37,2013-04-28 01:03:00,
2013-04-27 21:08:00,55.7,39.3,30.19,NE,51,0.0,0.0,54,0.00,CLR,SKC,0.00,WeatherDisplay:10.37,2013-04-28 01:08:00,
2013-04-27 21:13:00,55.5,39.1,30.19,NE,51,0.0,0.0,54,0.00,CLR,SKC,0.00,WeatherDisplay:10.37,2013-04-28 01:13:00,
2013-04-27 21:18:00,55.3,38.4,30.19,NE,51,0.0,0.0,53,0.00,CLR,SKC,0.00,WeatherDisplay:10.37,2013-04-28 01:18:00,
2013-04-27 21:23:00,55.1,38.7,30.19,NE,51,0.0,0.0,54,0.00,CLR,SKC,0.00,WeatherDisplay:10.37,2013-04-28 01:23:00,
2013-04-27 21:28:00,55.0,39.1,30.19,NE,51,0.0,0.0,55,0.00,CLR,SKC,0.00,WeatherDisplay:10.37,2013-04-28 01:28:00,
2013-04-27 21:33:00,54.7,38.8,30.19,NE,51,0.0,0.0,55,0.00,CLR,SKC,0.00,WeatherDisplay:10.37,2013-04-28 01:33:00,
2013-04-27 21:38:00,54.5,39.1,30.19,NE,51,0.0,0.0,56,0.00,CLR,SKC,0.00,WeatherDisplay:10.37,2013-04-28 01:38:00,
2013-04-27 21:43:00,54.2,38.8,30.19,NE,51,0.0,0.0,56,0.00,CLR,SKC,0.00,WeatherDisplay:10.37,2013-04-28 01:43:00,
2013-04-27 21:48:00,53.8,38.9,30.20,NE,51,0.0,0.0,57,0.00,CLR,SKC,0.00,WeatherDisplay:10.37,2013-04-28 01:48:00,
2013-04-27 21:53:00,53.5,38.6,30.19,NE,51,0.0,0.0,57,0.00,CLR,SKC,0.00,WeatherDisplay:10.37,2013-04-28 01:53:00,
2013-04-27 21:58:00,53.3,38.4,30.19,NE,51,0.0,0.0,57,0.00,CLR,SKC,0.00,WeatherDisplay:10.37,2013-04-28 01:58:00,
2013-04-27 22:03:00,53.1,38.7,30.19,NE,51,0.0,0.0,58,0.00,CLR,SKC,0.00,WeatherDisplay:10.37,2013-04-28 02:03:00,
2013-04-27 22:08:00,52.8,38.4,30.19,NE,51,0.0,0.0,58,0.00,CLR,SKC,0.00,WeatherDisplay:10.37,2013-04-28 02:08:00,
2013-04-27 22:13:00,52.6,38.7,30.19,NE,51,0.0,0.0,59,0.00,CLR,SKC,0.00,WeatherDisplay:10.37,2013-04-28 02:13:00,
2013-04-27 22:18:00,52.4,38.9,30.19,NE,51,0.0,0.0,60,0.00,CLR,SKC,0.00,WeatherDisplay:10.37,2013-04-28 02:18:00,
2013-04-27 22:23:00,52.1,39.1,30.19,NE,51,0.0,0.0,61,0.00,CLR,SKC,0.00,WeatherDisplay:10.37,2013-04-28 02:23:00,
2013-04-27 22:28:00,51.7,39.1,30.19,NE,51,0.0,0.0,62,0.00,CLR,SKC,0.00,WeatherDisplay:10.37,2013-04-28 02:28:00,
2013-04-27 22:33:00,51.4,40.0,30.19,NE,51,0.0,0.0,65,0.00,CLR,SKC,0.00,WeatherDisplay:10.37,2013-04-28 02:33:00,
2013-04-27 22:38:00,51.0,39.2,30.19,NE,51,0.0,0.0,64,0.00,CLR,SKC,0.00,WeatherDisplay:10.37,2013-04-28 02:38:00,
2013-04-27 22:43:00,50.7,39.0,30.19,NE,51,0.0,0.0,64,0.00,CLR,SKC,0.00,WeatherDisplay:10.37,2013-04-28 02:43:00,
2013-04-27 22:48:00,50.5,39.6,30.19,NE,51,0.0,0.0,66,0.00,CLR,SKC,0.00,WeatherDisplay:10.37,2013-04-28 02:48:00,
2013-04-27 22:53:00,50.2,38.9,30.19,NE,51,0.0,0.0,65,0.00,CLR,SKC,0.00,WeatherDisplay:10.37,2013-04-28 02:53:00,
2013-04-27 22:58:00,50.0,39.1,30.19,NE,51,0.0,0.0,66,0.00,CLR,SKC,0.00,WeatherDisplay:10.37,2013-04-28 02:58:00,
2013-04-27 23:03:00,49.8,38.9,30.19,NE,51,0.0,0.0,66,0.00,CLR,SKC,0.00,WeatherDisplay:10.37,2013-04-28 03:03:00,
2013-04-27 23:08:00,49.6,38.7,30.19,NE,51,0.0,0.0,66,0.00,CLR,SKC,0.00,WeatherDisplay:10.37,2013-04-28 03:08:00,
2013-04-27 23:13:00,49.4,38.9,30.19,NE,51,0.0,0.0,67,0.00,CLR,SKC,0.00,WeatherDisplay:10.37,2013-04-28 03:13:00,
2013-04-27 23:18:00,49.1,39.0,30.19,NE,51,0.0,0.0,68,0.00,CLR,SKC,0.00,WeatherDisplay:10.37,2013-04-28 03:18:00,
2013-04-27 23:23:00,48.8,38.7,30.19,NE,51,0.0,0.0,68,0.00,CLR,SKC,0.00,WeatherDisplay:10.37,2013-04-28 03:23:00,
2013-04-27 23:28:00,48.6,38.5,30.19,NE,51,0.0,0.0,68,0.00,CLR,SKC,0.00,WeatherDisplay:10.37,2013-04-28 03:28:00,
2013-04-27 23:33:00,48.7,39.4,30.19,NE,51,0.0,0.0,70,0.00,CLR,SKC,0.00,WeatherDisplay:10.37,2013-04-28 03:33:00,
2013-04-27 23:38:00,48.6,38.9,30.19,NE,51,0.0,0.0,69,0.00,CLR,SKC,0.00,WeatherDisplay:10.37,2013-04-28 03:38:00,
2013-04-27 23:43:00,48.5,39.2,30.19,NE,51,0.0,0.0,70,0.00,CLR,SKC,0.00,WeatherDisplay:10.37,2013-04-28 03:43:00,
2013-04-27 23:48:00,48.3,39.0,30.19,NE,51,0.0,0.0,70,0.00,CLR,SKC,0.00,WeatherDisplay:10.37,2013-04-28 03:48:00,
2013-04-27 23:53:00,48.1,38.4,30.19,NE,51,0.0,0.0,69,0.00,CLR,SKC,0.00,WeatherDisplay:10.37,2013-04-28 03:53:00,
2013-04-27 23:58:00,47.9,38.2,30.19,NE,51,0.0,0.0,69,0.00,CLR,SKC,0.00,WeatherDisplay:10.37,2013-04-28 03:58:00,